sensor_id;sensor_type;location;lat;lon;timestamp;pressure;altitude;pressure_sealevel;temperature;humidity
56270;BME280;42176;43.240;27.880;2023-04-05T00:00:21;99371.06;;;2.79;100.00
56270;BME280;42176;43.240;27.880;2023-04-05T00:02:46;99335.28;;;2.66;100.00
56270;BME280;42176;43.240;27.880;2023-04-05T00:05:13;99335.31;;;2.63;100.00
56270;BME280;42176;43.240;27.880;2023-04-05T00:07:39;99335.38;;;2.44;100.00
56270;BME280;42176;43.240;27.880;2023-04-05T00:10:06;99346.69;;;2.37;100.00
56270;BME280;42176;43.240;27.880;2023-04-05T00:12:34;99361.53;;;2.27;100.00
56270;BME280;42176;43.240;27.880;2023-04-05T00:15:00;99345.84;;;2.33;100.00
56270;BME280;42176;43.240;27.880;2023-04-05T00:17:26;99338.00;;;2.22;100.00
56270;BME280;42176;43.240;27.880;2023-04-05T00:19:54;99366.75;;;2.22;100.00
56270;BME280;42176;43.240;27.880;2023-04-05T00:22:22;99355.44;;;2.17;100.00
56270;BME280;42176;43.240;27.880;2023-04-05T00:24:51;99369.38;;;2.25;100.00
56270;BME280;42176;43.240;27.880;2023-04-05T00:30:15;99375.47;;;2.24;100.00
56270;BME280;42176;43.240;27.880;2023-04-05T00:32:47;99366.78;;;2.28;100.00
56270;BME280;42176;43.240;27.880;2023-04-05T00:35:14;99355.44;;;2.20;100.00
56270;BME280;42176;43.240;27.880;2023-04-05T00:37:39;99378.91;;;1.58;100.00
56270;BME280;42176;43.240;27.880;2023-04-05T00:40:05;99383.28;;;1.72;100.00
56270;BME280;42176;43.240;27.880;2023-04-05T00:42:31;99384.19;;;1.95;100.00
56270;BME280;42176;43.240;27.880;2023-04-05T00:44:56;99376.38;;;2.09;100.00
56270;BME280;42176;43.240;27.880;2023-04-05T00:47:22;99370.25;;;2.15;100.00
56270;BME280;42176;43.240;27.880;2023-04-05T00:49:48;99375.47;;;2.18;100.00
56270;BME280;42176;43.240;27.880;2023-04-05T00:52:14;99365.00;;;2.06;100.00
56270;BME280;42176;43.240;27.880;2023-04-05T00:54:40;99386.84;;;2.25;100.00
56270;BME280;42176;43.240;27.880;2023-04-05T00:57:07;99378.09;;;2.18;100.00
56270;BME280;42176;43.240;27.880;2023-04-05T00:59:33;99368.47;;;1.55;100.00
56270;BME280;42176;43.240;27.880;2023-04-05T01:02:12;99386.78;;;1.92;100.00
56270;BME280;42176;43.240;27.880;2023-04-05T01:04:43;99393.78;;;1.93;100.00
56270;BME280;42176;43.240;27.880;2023-04-05T01:07:39;99390.31;;;2.01;100.00
56270;BME280;42176;43.240;27.880;2023-04-05T01:10:09;99376.34;;;2.00;100.00
56270;BME280;42176;43.240;27.880;2023-04-05T01:12:37;99371.97;;;2.04;100.00
56270;BME280;42176;43.240;27.880;2023-04-05T01:15:04;99380.72;;;2.15;100.00
56270;BME280;42176;43.240;27.880;2023-04-05T01:17:30;99378.09;;;2.09;100.00
56270;BME280;42176;43.240;27.880;2023-04-05T01:20:03;99385.97;;;2.15;100.00
56270;BME280;42176;43.240;27.880;2023-04-05T01:25:56;99389.41;;;2.05;100.00
56270;BME280;42176;43.240;27.880;2023-04-05T01:31:40;99393.78;;;2.07;100.00
56270;BME280;42176;43.240;27.880;2023-04-05T01:34:19;99390.31;;;2.10;100.00
56270;BME280;42176;43.240;27.880;2023-04-05T01:36:53;99393.78;;;2.00;100.00
56270;BME280;42176;43.240;27.880;2023-04-05T01:39:22;99382.44;;;2.04;100.00
56270;BME280;42176;43.240;27.880;2023-04-05T01:41:48;99387.69;;;2.01;100.00
56270;BME280;42176;43.240;27.880;2023-04-05T01:44:14;99368.50;;;1.98;100.00
56270;BME280;42176;43.240;27.880;2023-04-05T01:46:40;99379.84;;;1.97;100.00
56270;BME280;42176;43.240;27.880;2023-04-05T01:49:05;99389.41;;;1.92;100.00
56270;BME280;42176;43.240;27.880;2023-04-05T01:51:31;99388.53;;;1.98;100.00
56270;BME280;42176;43.240;27.880;2023-04-05T01:53:57;99400.75;;;2.04;100.00
56270;BME280;42176;43.240;27.880;2023-04-05T01:56:22;99389.41;;;2.05;100.00
56270;BME280;42176;43.240;27.880;2023-04-05T01:58:48;99395.53;;;2.05;100.00
56270;BME280;42176;43.240;27.880;2023-04-05T02:01:13;99402.50;;;1.94;100.00
56270;BME280;42176;43.240;27.880;2023-04-05T02:03:38;99410.34;;;1.98;100.00
56270;BME280;42176;43.240;27.880;2023-04-05T02:06:04;99420.81;;;1.98;100.00
56270;BME280;42176;43.240;27.880;2023-04-05T02:08:30;99399.84;;;1.89;100.00
56270;BME280;42176;43.240;27.880;2023-04-05T02:10:56;99401.44;;;1.22;100.00
56270;BME280;42176;43.240;27.880;2023-04-05T02:13:21;99401.50;;;1.47;100.00
56270;BME280;42176;43.240;27.880;2023-04-05T02:15:48;99397.22;;;1.63;100.00
56270;BME280;42176;43.240;27.880;2023-04-05T02:18:16;99406.78;;;1.65;100.00
56270;BME280;42176;43.240;27.880;2023-04-05T02:20:49;99378.03;;;1.64;100.00
56270;BME280;42176;43.240;27.880;2023-04-05T02:23:17;99383.28;;;1.79;100.00
56270;BME280;42176;43.240;27.880;2023-04-05T02:25:42;99368.50;;;1.89;100.00
56270;BME280;42176;43.240;27.880;2023-04-05T02:28:07;99386.78;;;1.88;100.00
56270;BME280;42176;43.240;27.880;2023-04-05T02:30:33;99365.00;;;1.90;100.00
56270;BME280;42176;43.240;27.880;2023-04-05T02:32:58;99381.56;;;1.89;100.00
56270;BME280;42176;43.240;27.880;2023-04-05T02:35:24;99372.00;;;1.94;100.00
56270;BME280;42176;43.240;27.880;2023-04-05T02:37:49;99389.41;;;1.92;100.00
56270;BME280;42176;43.240;27.880;2023-04-05T02:40:15;99368.50;;;1.98;100.00
56270;BME280;42176;43.240;27.880;2023-04-05T02:42:40;99389.41;;;1.95;100.00
56270;BME280;42176;43.240;27.880;2023-04-05T02:45:06;99385.06;;;1.96;100.00
56270;BME280;42176;43.240;27.880;2023-04-05T02:47:33;99401.63;;;2.00;100.00
56270;BME280;42176;43.240;27.880;2023-04-05T02:49:58;99396.41;;;2.09;100.00
56270;BME280;42176;43.240;27.880;2023-04-05T02:52:24;99393.75;;;1.95;100.00
56270;BME280;42176;43.240;27.880;2023-04-05T02:54:50;99393.69;;;1.51;100.00
56270;BME280;42176;43.240;27.880;2023-04-05T02:57:17;99402.38;;;1.44;100.00
56270;BME280;42176;43.240;27.880;2023-04-05T02:59:42;99417.25;;;1.73;100.00
56270;BME280;42176;43.240;27.880;2023-04-05T03:02:09;99399.84;;;1.89;100.00
56270;BME280;42176;43.240;27.880;2023-04-05T03:04:35;99378.97;;;1.94;100.00
56270;BME280;42176;43.240;27.880;2023-04-05T03:07:02;99382.44;;;2.04;100.00
56270;BME280;42176;43.240;27.880;2023-04-05T03:09:32;99387.69;;;2.07;100.00
56270;BME280;42176;43.240;27.880;2023-04-05T03:12:03;99405.09;;;2.05;100.00
56270;BME280;42176;43.240;27.880;2023-04-05T03:14:30;99379.84;;;2.08;100.00
56270;BME280;42176;43.240;27.880;2023-04-05T03:16:56;99378.09;;;2.13;100.00
56270;BME280;42176;43.240;27.880;2023-04-05T03:19:22;99387.69;;;2.07;100.00
56270;BME280;42176;43.240;27.880;2023-04-05T03:21:48;99375.50;;;2.00;100.00
56270;BME280;42176;43.240;27.880;2023-04-05T03:24:14;99412.09;;;2.12;100.00
56270;BME280;42176;43.240;27.880;2023-04-05T03:26:42;99415.56;;;2.11;100.00
56270;BME280;42176;43.240;27.880;2023-04-05T03:29:08;99412.06;;;2.06;100.00
56270;BME280;42176;43.240;27.880;2023-04-05T03:31:33;99433.00;;;2.09;100.00
56270;BME280;42176;43.240;27.880;2023-04-05T03:33:59;99445.19;;;2.07;100.00
56270;BME280;42176;43.240;27.880;2023-04-05T03:36:24;99443.44;;;2.03;100.00
56270;BME280;42176;43.240;27.880;2023-04-05T03:38:52;99448.66;;;1.92;100.00
56270;BME280;42176;43.240;27.880;2023-04-05T03:41:20;99434.53;;;1.29;100.00
56270;BME280;42176;43.240;27.880;2023-04-05T03:43:45;99458.16;;;1.54;100.00
56270;BME280;42176;43.240;27.880;2023-04-05T03:46:11;99459.94;;;1.72;100.00
56270;BME280;42176;43.240;27.880;2023-04-05T03:48:36;99464.28;;;1.75;100.00
56270;BME280;42176;43.240;27.880;2023-04-05T03:51:02;99473.06;;;1.94;100.00
56270;BME280;42176;43.240;27.880;2023-04-05T03:53:27;99466.13;;;2.10;100.00
56270;BME280;42176;43.240;27.880;2023-04-05T03:55:54;99442.56;;;2.04;100.00
56270;BME280;42176;43.240;27.880;2023-04-05T03:58:20;99450.41;;;1.91;100.00
56270;BME280;42176;43.240;27.880;2023-04-05T04:00:46;99462.59;;;1.86;100.00
56270;BME280;42176;43.240;27.880;2023-04-05T04:03:11;99460.84;;;1.91;100.00
56270;BME280;42176;43.240;27.880;2023-04-05T04:05:38;99452.13;;;1.89;100.00
56270;BME280;42176;43.240;27.880;2023-04-05T04:08:06;99473.13;;;2.14;100.00
56270;BME280;42176;43.240;27.880;2023-04-05T04:10:33;99446.94;;;1.95;100.00
56270;BME280;42176;43.240;27.880;2023-04-05T04:12:58;99444.28;;;1.78;100.00
56270;BME280;42176;43.240;27.880;2023-04-05T04:15:24;99456.53;;;2.06;100.00
56270;BME280;42176;43.240;27.880;2023-04-05T04:17:50;99455.69;;;2.28;100.00
56270;BME280;42176;43.240;27.880;2023-04-05T04:20:19;99478.19;;;1.61;100.00
56270;BME280;42176;43.240;27.880;2023-04-05T04:22:44;99455.63;;;1.85;100.00
56270;BME280;42176;43.240;27.880;2023-04-05T04:25:10;99460.91;;;2.13;100.00
56270;BME280;42176;43.240;27.880;2023-04-05T04:27:38;99464.38;;;2.00;100.00
56270;BME280;42176;43.240;27.880;2023-04-05T04:30:08;99471.06;;;1.26;100.00
56270;BME280;42176;43.240;27.880;2023-04-05T04:32:35;99484.31;;;1.62;100.00
56270;BME280;42176;43.240;27.880;2023-04-05T04:35:22;99485.25;;;1.84;100.00
56270;BME280;42176;43.240;27.880;2023-04-05T04:37:55;99456.47;;;1.87;100.00
56270;BME280;42176;43.240;27.880;2023-04-05T04:43:06;99470.44;;;1.86;100.00
56270;BME280;42176;43.240;27.880;2023-04-05T04:45:39;99479.91;;;1.56;100.00
56270;BME280;42176;43.240;27.880;2023-04-05T04:48:05;99497.44;;;1.82;100.00
56270;BME280;42176;43.240;27.880;2023-04-05T04:50:31;99481.75;;;1.85;100.00
56270;BME280;42176;43.240;27.880;2023-04-05T04:53:00;99491.38;;;2.03;100.00
56270;BME280;42176;43.240;27.880;2023-04-05T04:55:27;99484.44;;;2.10;100.00
56270;BME280;42176;43.240;27.880;2023-04-05T04:57:53;99485.31;;;2.20;100.00
56270;BME280;42176;43.240;27.880;2023-04-05T05:03:03;99467.00;;;2.26;100.00
56270;BME280;42176;43.240;27.880;2023-04-05T05:05:28;99463.53;;;2.30;100.00
56270;BME280;42176;43.240;27.880;2023-04-05T05:07:54;99484.47;;;2.32;100.00
56270;BME280;42176;43.240;27.880;2023-04-05T05:10:20;99480.09;;;2.24;100.00
56270;BME280;42176;43.240;27.880;2023-04-05T05:12:45;99484.47;;;2.28;100.00
56270;BME280;42176;43.240;27.880;2023-04-05T05:15:13;99474.00;;;2.33;100.00
56270;BME280;42176;43.240;27.880;2023-04-05T05:17:39;99460.91;;;2.25;100.00
56270;BME280;42176;43.240;27.880;2023-04-05T05:20:05;99471.38;;;2.22;100.00
56270;BME280;42176;43.240;27.880;2023-04-05T05:22:34;99427.78;;;2.24;100.00
56270;BME280;42176;43.240;27.880;2023-04-05T05:25:00;99460.03;;;2.22;100.00
56270;BME280;42176;43.240;27.880;2023-04-05T05:27:25;99468.75;;;2.08;100.00
56270;BME280;42176;43.240;27.880;2023-04-05T05:29:52;99479.91;;;1.59;100.00
56270;BME280;42176;43.240;27.880;2023-04-05T05:32:18;99447.53;;;1.21;100.00
56270;BME280;42176;43.240;27.880;2023-04-05T05:34:44;99500.56;;;1.10;100.00
56270;BME280;42176;43.240;27.880;2023-04-05T05:37:10;99463.34;;;1.48;100.00
56270;BME280;42176;43.240;27.880;2023-04-05T05:39:40;99487.06;;;2.13;100.00
56270;BME280;42176;43.240;27.880;2023-04-05T05:42:06;99477.41;;;1.89;100.00
56270;BME280;42176;43.240;27.880;2023-04-05T05:44:31;99477.22;;;1.44;100.00
56270;BME280;42176;43.240;27.880;2023-04-05T05:46:57;99503.88;;;0.84;100.00
56270;BME280;42176;43.240;27.880;2023-04-05T05:49:23;99509.44;;;1.40;100.00
56270;BME280;42176;43.240;27.880;2023-04-05T05:51:49;99507.97;;;2.13;100.00
56270;BME280;42176;43.240;27.880;2023-04-05T05:54:15;99514.00;;;1.89;100.00
56270;BME280;42176;43.240;27.880;2023-04-05T05:56:43;99510.31;;;1.40;100.00
56270;BME280;42176;43.240;27.880;2023-04-05T05:59:10;99509.34;;;1.27;100.00
56270;BME280;42176;43.240;27.880;2023-04-05T06:01:36;99527.88;;;1.74;100.00
56270;BME280;42176;43.240;27.880;2023-04-05T06:04:03;99532.38;;;2.21;100.00
56270;BME280;42176;43.240;27.880;2023-04-05T06:06:28;99529.59;;;1.72;100.00
56270;BME280;42176;43.240;27.880;2023-04-05T06:08:54;99531.03;;;1.12;100.00
56270;BME280;42176;43.240;27.880;2023-04-05T06:11:20;99544.44;;;1.70;100.00
56270;BME280;42176;43.240;27.880;2023-04-05T06:13:49;99555.06;;;2.22;100.00
56270;BME280;42176;43.240;27.880;2023-04-05T06:16:21;99550.63;;;1.98;100.00
56270;BME280;42176;43.240;27.880;2023-04-05T06:18:47;99556.31;;;1.18;100.00
56270;BME280;42176;43.240;27.880;2023-04-05T06:21:13;99554.78;;;1.57;100.00
56270;BME280;42176;43.240;27.880;2023-04-05T06:23:40;99563.78;;;2.34;100.00
56270;BME280;42176;43.240;27.880;2023-04-05T06:26:14;99535.84;;;2.08;100.00
56270;BME280;42176;43.240;27.880;2023-04-05T06:28:40;99574.78;;;1.47;100.00
56270;BME280;42176;43.240;27.880;2023-04-05T06:31:05;99570.72;;;2.19;100.00
56270;BME280;42176;43.240;27.880;2023-04-05T06:33:31;99581.28;;;3.43;100.00
56270;BME280;42176;43.240;27.880;2023-04-05T06:35:56;99570.84;;;2.73;100.00
56270;BME280;42176;43.240;27.880;2023-04-05T06:38:21;99580.06;;;1.61;100.00
56270;BME280;42176;43.240;27.880;2023-04-05T06:40:47;99595.03;;;1.90;100.00
56270;BME280;42176;43.240;27.880;2023-04-05T06:43:12;99603.91;;;2.39;100.00
56270;BME280;42176;43.240;27.880;2023-04-05T06:45:39;99604.00;;;2.76;100.00
56270;BME280;42176;43.240;27.880;2023-04-05T06:48:06;99609.25;;;2.98;100.00
56270;BME280;42176;43.240;27.880;2023-04-05T06:50:31;99617.84;;;2.25;100.00
56270;BME280;42176;43.240;27.880;2023-04-05T06:52:57;99615.22;;;2.27;100.00
56270;BME280;42176;43.240;27.880;2023-04-05T06:55:22;99613.56;;;2.63;100.00
56270;BME280;42176;43.240;27.880;2023-04-05T06:57:48;99616.25;;;3.17;100.00
56270;BME280;42176;43.240;27.880;2023-04-05T07:00:13;99606.63;;;2.79;100.00
56270;BME280;42176;43.240;27.880;2023-04-05T07:02:41;99606.38;;;1.97;100.00
56270;BME280;42176;43.240;27.880;2023-04-05T07:05:06;99633.63;;;2.53;100.00
56270;BME280;42176;43.240;27.880;2023-04-05T07:07:33;99631.97;;;3.11;100.00
56270;BME280;42176;43.240;27.880;2023-04-05T07:10:03;99629.31;;;2.85;100.00
56270;BME280;42176;43.240;27.880;2023-04-05T07:12:28;99632.66;;;2.22;100.00
56270;BME280;42176;43.240;27.880;2023-04-05T07:14:54;99647.63;;;2.71;100.00
56270;BME280;42176;43.240;27.880;2023-04-05T07:17:19;99639.84;;;3.27;100.00
56270;BME280;42176;43.240;27.880;2023-04-05T07:19:45;99630.22;;;2.92;100.00
56270;BME280;42176;43.240;27.880;2023-04-05T07:22:10;99630.81;;;2.04;100.00
56270;BME280;42176;43.240;27.880;2023-04-05T07:24:35;99648.50;;;2.64;100.00
56270;BME280;42176;43.240;27.880;2023-04-05T07:27:01;99650.28;;;3.13;100.00
56270;BME280;42176;43.240;27.880;2023-04-05T07:29:27;99638.94;;;3.12;100.00
56270;BME280;42176;43.240;27.880;2023-04-05T07:31:52;99639.69;;;2.48;100.00
56270;BME280;42176;43.240;27.880;2023-04-05T07:34:18;99651.94;;;2.61;100.00
56270;BME280;42176;43.240;27.880;2023-04-05T07:36:43;99654.66;;;3.15;100.00
56270;BME280;42176;43.240;27.880;2023-04-05T07:39:08;99642.44;;;3.39;100.00
56270;BME280;42176;43.240;27.880;2023-04-05T07:41:34;99650.25;;;2.79;100.00
56270;BME280;42176;43.240;27.880;2023-04-05T07:44:01;99658.16;;;3.20;100.00
56270;BME280;42176;43.240;27.880;2023-04-05T07:46:26;99645.91;;;3.72;100.00
56270;BME280;42176;43.240;27.880;2023-04-05T07:48:53;99642.19;;;4.35;100.00
56270;BME280;42176;43.240;27.880;2023-04-05T07:51:18;99641.13;;;4.70;100.00
56270;BME280;42176;43.240;27.880;2023-04-05T07:53:44;99632.72;;;4.00;100.00
56270;BME280;42176;43.240;27.880;2023-04-05T07:56:10;99656.31;;;3.97;100.00
56270;BME280;42176;43.240;27.880;2023-04-05T07:58:37;99647.28;;;4.66;100.00
56270;BME280;42176;43.240;27.880;2023-04-05T08:01:07;99649.69;;;5.02;100.00
56270;BME280;42176;43.240;27.880;2023-04-05T08:03:34;99643.38;;;5.26;100.00
56270;BME280;42176;43.240;27.880;2023-04-05T08:06:14;99642.13;;;4.48;100.00
56270;BME280;42176;43.240;27.880;2023-04-05T08:08:42;99643.97;;;4.27;100.00
56270;BME280;42176;43.240;27.880;2023-04-05T08:11:08;99633.22;;;4.77;100.00
56270;BME280;42176;43.240;27.880;2023-04-05T08:13:34;99645.25;;;5.12;100.00
56270;BME280;42176;43.240;27.880;2023-04-05T08:16:01;99663.06;;;4.57;100.00
56270;BME280;42176;43.240;27.880;2023-04-05T08:18:26;99661.22;;;4.78;100.00
56270;BME280;42176;43.240;27.880;2023-04-05T08:20:55;99661.56;;;5.48;100.00
56270;BME280;42176;43.240;27.880;2023-04-05T08:23:21;99657.38;;;5.28;100.00
56270;BME280;42176;43.240;27.880;2023-04-05T08:25:47;99669.09;;;4.76;100.00
56270;BME280;42176;43.240;27.880;2023-04-05T08:28:13;99668.03;;;5.10;100.00
56270;BME280;42176;43.240;27.880;2023-04-05T08:30:39;99663.47;;;5.32;100.00
56270;BME280;42176;43.240;27.880;2023-04-05T08:33:04;99660.69;;;5.49;100.00
56270;BME280;42176;43.240;27.880;2023-04-05T08:35:30;99667.34;;;4.75;100.00
56270;BME280;42176;43.240;27.880;2023-04-05T08:37:56;99682.03;;;5.09;100.00
56270;BME280;42176;43.240;27.880;2023-04-05T08:40:33;99649.97;;;5.71;100.00
56270;BME280;42176;43.240;27.880;2023-04-05T08:43:54;99679.38;;;5.10;100.00
56270;BME280;42176;43.240;27.880;2023-04-05T08:45:55;99677.78;;;4.89;100.00
56270;BME280;42176;43.240;27.880;2023-04-05T08:48:22;99680.09;;;5.32;100.00
56270;BME280;42176;43.240;27.880;2023-04-05T08:50:52;99672.84;;;5.62;100.00
56270;BME280;42176;43.240;27.880;2023-04-05T08:53:18;99682.78;;;5.26;100.00
56270;BME280;42176;43.240;27.880;2023-04-05T08:55:48;99691.09;;;4.55;100.00
56270;BME280;42176;43.240;27.880;2023-04-05T08:58:15;99690.78;;;5.09;100.00
56270;BME280;42176;43.240;27.880;2023-04-05T09:00:41;99690.34;;;5.63;100.00
56270;BME280;42176;43.240;27.880;2023-04-05T09:03:15;99699.66;;;4.88;100.00
56270;BME280;42176;43.240;27.880;2023-04-05T09:05:45;99685.75;;;4.70;100.00
56270;BME280;42176;43.240;27.880;2023-04-05T09:08:13;99702.06;;;5.28;100.00
56270;BME280;42176;43.240;27.880;2023-04-05T09:10:39;99684.16;;;5.71;100.00
56270;BME280;42176;43.240;27.880;2023-04-05T09:13:04;99688.16;;;5.09;100.00
56270;BME280;42176;43.240;27.880;2023-04-05T09:15:30;99692.75;;;4.75;100.00
56270;BME280;42176;43.240;27.880;2023-04-05T09:17:56;99697.72;;;5.18;100.00
56270;BME280;42176;43.240;27.880;2023-04-05T09:20:22;99711.59;;;5.42;100.00
56270;BME280;42176;43.240;27.880;2023-04-05T09:22:47;99701.44;;;4.83;100.00
56270;BME280;42176;43.240;27.880;2023-04-05T09:25:39;99704.09;;;4.78;100.00
56270;BME280;42176;43.240;27.880;2023-04-05T09:28:06;99719.59;;;5.22;100.00
56270;BME280;42176;43.240;27.880;2023-04-05T09:30:33;99724.00;;;5.21;100.00
56270;BME280;42176;43.240;27.880;2023-04-05T09:32:59;99709.41;;;4.67;100.00
56270;BME280;42176;43.240;27.880;2023-04-05T09:35:27;99711.41;;;5.63;100.00
56270;BME280;42176;43.240;27.880;2023-04-05T09:38:03;99673.72;;;6.47;100.00
56270;BME280;42176;43.240;27.880;2023-04-05T09:40:45;99699.59;;;6.08;100.00
56270;BME280;42176;43.240;27.880;2023-04-05T09:43:13;99687.28;;;6.13;100.00
56270;BME280;42176;43.240;27.880;2023-04-05T09:45:40;99698.13;;;6.62;100.00
56270;BME280;42176;43.240;27.880;2023-04-05T09:48:07;99696.97;;;6.84;100.00
56270;BME280;42176;43.240;27.880;2023-04-05T09:50:32;99695.97;;;6.92;100.00
56270;BME280;42176;43.240;27.880;2023-04-05T09:53:11;99702.13;;;6.91;100.00
56270;BME280;42176;43.240;27.880;2023-04-05T09:55:41;99711.06;;;6.04;100.00
56270;BME280;42176;43.240;27.880;2023-04-05T09:58:33;99714.34;;;6.24;100.00
56270;BME280;42176;43.240;27.880;2023-04-05T10:00:59;99712.88;;;6.77;100.00
56270;BME280;42176;43.240;27.880;2023-04-05T10:03:24;99711.78;;;6.18;100.00
56270;BME280;42176;43.240;27.880;2023-04-05T10:05:54;99716.38;;;5.94;100.00
56270;BME280;42176;43.240;27.880;2023-04-05T10:08:20;99709.50;;;6.64;100.00
56270;BME280;42176;43.240;27.880;2023-04-05T10:10:48;99701.63;;;6.61;98.37
56270;BME280;42176;43.240;27.880;2023-04-05T10:13:14;99704.03;;;6.04;100.00
56270;BME280;42176;43.240;27.880;2023-04-05T10:15:45;99709.41;;;6.72;98.93
56270;BME280;42176;43.240;27.880;2023-04-05T10:18:17;99711.31;;;7.23;97.07
56270;BME280;42176;43.240;27.880;2023-04-05T10:20:49;99717.56;;;7.73;94.00
56270;BME280;42176;43.240;27.880;2023-04-05T10:23:27;99710.00;;;8.03;88.06
56270;BME280;42176;43.240;27.880;2023-04-05T10:26:31;99727.72;;;6.82;93.04
56270;BME280;42176;43.240;27.880;2023-04-05T10:29:11;99723.34;;;6.81;100.00
56270;BME280;42176;43.240;27.880;2023-04-05T10:34:04;99731.72;;;7.10;94.01
56270;BME280;42176;43.240;27.880;2023-04-05T10:37:17;99737.81;;;6.46;100.00
56270;BME280;42176;43.240;27.880;2023-04-05T10:39:28;99734.13;;;7.27;97.82
56270;BME280;42176;43.240;27.880;2023-04-05T10:44:38;99725.28;;;7.31;92.02
56270;BME280;42176;43.240;27.880;2023-04-05T10:47:04;99732.56;;;6.45;100.00
56270;BME280;42176;43.240;27.880;2023-04-05T10:49:46;99732.88;;;6.89;98.70
56270;BME280;42176;43.240;27.880;2023-04-05T10:52:14;99737.72;;;7.20;96.44
56270;BME280;42176;43.240;27.880;2023-04-05T10:54:41;99752.22;;;7.50;95.70
56270;BME280;42176;43.240;27.880;2023-04-05T10:57:08;99749.22;;;7.73;92.34
56270;BME280;42176;43.240;27.880;2023-04-05T10:59:34;99748.84;;;6.76;97.26
56270;BME280;42176;43.240;27.880;2023-04-05T11:02:01;99740.91;;;6.03;100.00
56270;BME280;42176;43.240;27.880;2023-04-05T11:04:28;99739.13;;;6.80;100.00
56270;BME280;42176;43.240;27.880;2023-04-05T11:09:35;99723.47;;;7.33;96.62
56270;BME280;42176;43.240;27.880;2023-04-05T11:12:02;99750.94;;;6.49;100.00
56270;BME280;42176;43.240;27.880;2023-04-05T11:14:35;99745.06;;;6.97;100.00
56270;BME280;42176;43.240;27.880;2023-04-05T11:17:02;99747.00;;;7.47;100.00
56270;BME280;42176;43.240;27.880;2023-04-05T11:22:13;99749.22;;;8.25;97.39
56270;BME280;42176;43.240;27.880;2023-04-05T11:27:15;99750.75;;;6.65;100.00
56270;BME280;42176;43.240;27.880;2023-04-05T11:29:49;99736.53;;;7.42;100.00
56270;BME280;42176;43.240;27.880;2023-04-05T11:32:15;99743.56;;;7.95;100.00
56270;BME280;42176;43.240;27.880;2023-04-05T11:34:42;99749.47;;;7.58;98.83
56270;BME280;42176;43.240;27.880;2023-04-05T11:37:07;99730.00;;;7.07;100.00
56270;BME280;42176;43.240;27.880;2023-04-05T11:39:33;99747.84;;;7.47;100.00
56270;BME280;42176;43.240;27.880;2023-04-05T11:42:08;99748.97;;;7.89;100.00
56270;BME280;42176;43.240;27.880;2023-04-05T11:44:47;99766.53;;;7.90;99.14
56270;BME280;42176;43.240;27.880;2023-04-05T11:47:17;99759.38;;;6.79;100.00
56270;BME280;42176;43.240;27.880;2023-04-05T11:49:49;99744.28;;;6.91;100.00
56270;BME280;42176;43.240;27.880;2023-04-05T11:52:16;99762.34;;;7.19;100.00
56270;BME280;42176;43.240;27.880;2023-04-05T11:54:43;99757.50;;;7.49;100.00
56270;BME280;42176;43.240;27.880;2023-04-05T11:57:19;99764.69;;;6.73;100.00
56270;BME280;42176;43.240;27.880;2023-04-05T11:59:45;99757.63;;;6.78;100.00
56270;BME280;42176;43.240;27.880;2023-04-05T12:02:12;99757.00;;;7.25;100.00
56270;BME280;42176;43.240;27.880;2023-04-05T12:04:38;99749.19;;;6.48;100.00
56270;BME280;42176;43.240;27.880;2023-04-05T12:07:17;99763.72;;;5.98;100.00
56270;BME280;42176;43.240;27.880;2023-04-05T12:10:15;99754.25;;;6.67;100.00
56270;BME280;42176;43.240;27.880;2023-04-05T12:12:43;99759.13;;;6.96;100.00
56270;BME280;42176;43.240;27.880;2023-04-05T12:15:11;99744.03;;;7.09;100.00
56270;BME280;42176;43.240;27.880;2023-04-05T12:17:48;99762.22;;;6.61;100.00
56270;BME280;42176;43.240;27.880;2023-04-05T12:20:20;99749.81;;;7.33;100.00
56270;BME280;42176;43.240;27.880;2023-04-05T12:22:47;99750.72;;;7.90;100.00
56270;BME280;42176;43.240;27.880;2023-04-05T12:25:14;99744.25;;;8.06;100.00
56270;BME280;42176;43.240;27.880;2023-04-05T12:27:41;99737.97;;;7.62;100.00
56270;BME280;42176;43.240;27.880;2023-04-05T12:30:16;99744.94;;;8.18;100.00
56270;BME280;42176;43.240;27.880;2023-04-05T12:32:52;99740.78;;;8.53;100.00
56270;BME280;42176;43.240;27.880;2023-04-05T12:35:20;99736.72;;;7.85;99.47
56270;BME280;42176;43.240;27.880;2023-04-05T12:37:46;99741.19;;;7.25;100.00
56270;BME280;42176;43.240;27.880;2023-04-05T12:40:11;99742.28;;;7.66;100.00
56270;BME280;42176;43.240;27.880;2023-04-05T12:42:38;99747.94;;;7.96;100.00
56270;BME280;42176;43.240;27.880;2023-04-05T12:45:06;99738.94;;;6.95;100.00
56270;BME280;42176;43.240;27.880;2023-04-05T12:47:34;99740.06;;;7.41;100.00
56270;BME280;42176;43.240;27.880;2023-04-05T12:50:30;99741.63;;;7.53;100.00
56270;BME280;42176;43.240;27.880;2023-04-05T12:53:00;99742.13;;;6.53;100.00
56270;BME280;42176;43.240;27.880;2023-04-05T12:55:27;99748.63;;;6.95;100.00
56270;BME280;42176;43.240;27.880;2023-04-05T12:57:55;99746.41;;;7.28;100.00
56270;BME280;42176;43.240;27.880;2023-04-05T13:00:24;99750.13;;;7.14;100.00
56270;BME280;42176;43.240;27.880;2023-04-05T13:02:54;99740.94;;;6.76;100.00
56270;BME280;42176;43.240;27.880;2023-04-05T13:05:21;99734.09;;;7.30;100.00
56270;BME280;42176;43.240;27.880;2023-04-05T13:07:47;99740.16;;;7.90;100.00
56270;BME280;42176;43.240;27.880;2023-04-05T13:10:13;99738.09;;;8.06;100.00
56270;BME280;42176;43.240;27.880;2023-04-05T13:12:38;99739.28;;;7.33;100.00
56270;BME280;42176;43.240;27.880;2023-04-05T13:15:04;99735.00;;;7.81;100.00
56270;BME280;42176;43.240;27.880;2023-04-05T13:17:30;99726.97;;;8.37;100.00
56270;BME280;42176;43.240;27.880;2023-04-05T13:19:55;99728.19;;;7.67;100.00
56270;BME280;42176;43.240;27.880;2023-04-05T13:22:21;99729.06;;;7.69;100.00